X  Kiinni Metar Aviation säätiedot     EHDL Deelen Air Base
Lämpötila
19°C Lämpötila
14°C Kastepiste
73% Kosteus



Tuuli
13 KM/T
8 MPH
4 M/S
7 KTS



270°
L
Nykyiset olosuhteet

Enimmäkseen pilvistä Enimmäkseen pilvistä
Paine 1019.98 (hPa) - 30.12 (inHg)
Näkyvyys 6 (maili) - 9.7 (km)
Lentokenttä
Lentokentän koodi EHDL

Sijainti: Deelen Air Base
Etäisyys: 14 (km)

Metar:
EHDL 170955Z AUTO 27007KT 210V010 9999 SCT023 BKN027 BKN031 19/14 Q1020 BLU

Aika: 17-07-2024 11:55 CEST